LBPDLTBY

Guest
Details From LBPD - Plovdiv
To LTBY - ANADOLU
Flight Number -
Tags generated
Created
Modified
Stats Distance 296 nm / 548 km
Max Altitude 27,700 ft / 8,443 m
Waypoints 5
Social Downloads 1
Likes 0
Share VATSIM

Download

Looking for another format? Having issues loading an existing format? Contact us
Advertisement - Login to hide

Notes

Basic altitude profile: - Ascent Rate: 2500ft/min - Ascent Speed: 250kts - Cruise Altitude: 35000ft - Cruise Speed: 420kts - Descent Rate: 1500ft/min - Descent Speed: 250kts Options: - Use NATs: yes - Use PACOTS: yes - Use low airways: yes - Use high airways: yes

Route

LBPD PODIN A4 ADORU UL614 YAA LTBY

ID Type Via Altitude Latitude Longitude Leg Dist Tot Dist Heading (true) Name
O LBPD APT - 0 ft / 0 m 42.06786˚ 24.85081˚ - 0 nm - Plovdiv
PODIN FIX - 6,000 ft / 1,829 m 42.01583˚ 25.22611˚ 17 nm 17 nm 100° / 101° -
ADORU FIX A4 (AWY-LO) 27,700 ft / 8,443 m 41.87167˚ 26.56833˚ 60 nm 77 nm 98° / 99° -
YAA VOR UL614 (AWY-HI) 27,500 ft / 8,382 m 40.47500˚ 29.20750˚ 145 nm 223 nm 124° / 126° YALOVA VOR-DME
O LTBY APT - 0 ft / 0 m 39.80991˚ 30.51939˚ 72 nm 295 nm 123° / 124° ANADOLU

Altitude Profile

Advertisement - Login to hide

Weather


0- 5 10 15 20 25 30 35+ Temperature / ° C

Clouds and Precipitation
Forecast for 2017-12-13 12:00 UTC. Updated 35 minutes ago

Ground ~20,000 ft ~40,000 ft Winds

LBPD

Details ICAO LBPD (PDV)
Name Plovdiv
Region Bulgaria
Timezone Europe/Sofia (UTC+2.0)
Stats Elevation 597 ft / 182 m (AMSL)
Location 42.067856° 24.850814°
Runways 1
Magnetic Variation 5.066° E

METAR

LBPD 130730Z AUTO VRB02KT 6000 NCD 03/03 Q1019 NOSIG

Decode

TAF

TAF LBPD 130500Z 1306/1406 VRB04KT 3000 BR SCT010 BECMG 1306/1308 7000 NSC BECMG 1308/1310 11010KT CAVOK

Decode

Departure Runways

ID Width Length Bearing (true) Bearing (mag) Surface Threshold Offset Overrun Length
12 164 ft / 50 m 8,200 ft / 2,500 m 127.33° 122.26° Asphalt 0 ft / 0 m 197 ft / 60 m
30 164 ft / 50 m 8,200 ft / 2,500 m 307.35° 302.28° Asphalt 0 ft / 0 m 295 ft / 90 m

LTBY

Details ICAO LTBY (AOE)
Name ANADOLU
Region Turkey
Timezone Europe/Istanbul (UTC+3.0)
Stats Elevation 2,588 ft / 789 m (AMSL)
Location 39.809907° 30.519393°
Runways 1
Magnetic Variation 5.438° E

METAR

LTBY 130650Z 00000KT 2000 BR NSC M00/M00 Q1022

Decode

TAF

Not found

Destination Runways

ID Width Length Bearing (true) Bearing (mag) Surface Threshold Offset Overrun Length
09 98 ft / 30 m 8,250 ft / 2,515 m 92.76° 87.32° Asphalt 0 ft / 0 m 97 ft / 30 m
27 98 ft / 30 m 8,250 ft / 2,515 m 272.78° 267.34° Asphalt 0 ft / 0 m 95 ft / 29 m